Aviation Digital Data Service (ADDS)

Output produced by TAFs form (1857 UTC 02 September 2015)
found at http://aviationweather.gov/adds/tafs/
 
KABQ 021730Z 0218/0318 25008KT P6SM SCT080 BKN200 
     FM030000 26010KT P6SM VCTS BKN100CB 
     FM030300 33008KT P6SM BKN120 
     FM030900 VRB05KT P6SM BKN120